Mount Blanchard, Ohio
Current Conditions -  °F | °C
As of 8:53 AM on Saturday 22 Nov 2014 (Local Time) from KFDY Reporting Station
Overcast Overcast  
Wind Chill: 29°   Ceiling: 4600
Heat Index: 38°   Visibility: 8mi
Dew Point: 34°   Wind: 15mph
Humidity: 86%   Direction: 190°S
Pressure: 30.16"   Gusts: NA
Location:  40.9°N, 83.56°W
Report Text: KFDY 221353Z AUTO 19013KT 8SM OVC046 03/01 A3016 RMK AO2 RAE30 SLP218 P0000 T00330011
Loading
Personal Weather Stations






























Interactive Weather Map New forecast layout! Learn more

10-Day Weather Forecast

Advertisements
Track Severe Weather on mobile